createdAt,value
2017-01-13T00:00:09.196Z,91.35
2017-01-13T00:00:37.368Z,91.35
2017-01-13T00:01:05.550Z,91.35
2017-01-13T00:01:33.723Z,91.54
2017-01-13T00:02:01.885Z,91.64
2017-01-13T00:02:30.152Z,91.35
2017-01-13T00:02:58.313Z,91.16
2017-01-13T00:03:26.558Z,91.06
2017-01-13T00:03:54.702Z,91.25
2017-01-13T00:04:22.883Z,91.06
2017-01-13T00:04:51.065Z,91.25
2017-01-13T00:05:19.233Z,90.58
2017-01-13T00:05:47.395Z,90.58
2017-01-13T00:06:15.560Z,90.67
2017-01-13T00:06:43.774Z,90.19
2017-01-13T00:07:11.970Z,90.19
2017-01-13T00:07:40.121Z,90.67
2017-01-13T00:08:08.396Z,89.9
2017-01-13T00:08:36.561Z,90
2017-01-13T00:09:04.734Z,90.19
2017-01-13T00:09:32.915Z,90
2017-01-13T00:10:01.084Z,90.19
2017-01-13T00:10:29.355Z,89.81
2017-01-13T00:10:57.625Z,90.19
2017-01-13T00:11:25.808Z,89.81
2017-01-13T00:11:53.998Z,90.29
2017-01-13T00:12:22.199Z,90
2017-01-13T00:12:50.349Z,90.29
2017-01-13T00:13:18.506Z,90
2017-01-13T00:13:46.669Z,89.42
2017-01-13T00:14:14.853Z,89.51
2017-01-13T00:14:43.046Z,89.42
2017-01-13T00:15:11.562Z,89.51
2017-01-13T00:15:39.723Z,89.61
2017-01-13T00:16:07.891Z,89.32
2017-01-13T00:16:36.137Z,89.51
2017-01-13T00:17:04.458Z,89.23
2017-01-13T00:17:32.666Z,89.61
2017-01-13T00:18:00.823Z,88.93
2017-01-13T00:18:28.994Z,89.51
2017-01-13T00:18:57.167Z,89.65
2017-01-13T00:19:25.332Z,89.03
2017-01-13T00:19:53.531Z,89.13
2017-01-13T00:20:21.699Z,88.93
2017-01-13T00:20:49.860Z,88.98
2017-01-13T00:21:18.040Z,89.23
2017-01-13T00:21:46.196Z,88.93
2017-01-13T00:22:14.337Z,89.23
2017-01-13T00:22:42.554Z,88.98
2017-01-13T00:23:10.787Z,89.61
2017-01-13T00:23:38.995Z,89.51
2017-01-13T00:24:07.153Z,90.23
2017-01-13T00:24:35.332Z,90
2017-01-13T00:25:03.455Z,90
2017-01-13T00:25:31.671Z,89.42
2017-01-13T00:25:59.850Z,89.32
2017-01-13T00:26:28.033Z,89.81
2017-01-13T00:26:56.217Z,90.29
2017-01-13T00:27:24.419Z,90
2017-01-13T00:27:52.587Z,90.19
2017-01-13T00:28:20.730Z,90.29
2017-01-13T00:28:49.007Z,90
2017-01-13T00:29:17.172Z,90
2017-01-13T00:29:45.420Z,89.71
2017-01-13T00:30:13.575Z,90
2017-01-13T00:30:41.780Z,90.19
2017-01-13T00:31:09.930Z,90.58
2017-01-13T00:31:38.079Z,90.19
2017-01-13T00:32:06.221Z,89.95
2017-01-13T00:32:34.368Z,90.19
2017-01-13T00:33:02.551Z,90.87
2017-01-13T00:33:30.706Z,90.67
2017-01-13T00:33:58.865Z,90.19
2017-01-13T00:34:27.029Z,90.38
2017-01-13T00:34:55.184Z,89.81
2017-01-13T00:35:23.327Z,90.29
2017-01-13T00:35:51.587Z,90.29
2017-01-13T00:36:19.736Z,90.48
2017-01-13T00:36:47.956Z,90.48
2017-01-13T00:37:16.222Z,90.29
2017-01-13T00:37:44.399Z,90.58
2017-01-13T00:38:12.541Z,90.09
2017-01-13T00:38:40.774Z,90.19
2017-01-13T00:39:08.914Z,90.24
2017-01-13T00:39:37.047Z,90.63
2017-01-13T00:40:05.285Z,90.67
2017-01-13T00:40:33.509Z,90.67
2017-01-13T00:41:01.688Z,90.63
2017-01-13T00:41:29.846Z,90.53
2017-01-13T00:41:58.014Z,90.72
2017-01-13T00:42:26.303Z,90.53
2017-01-13T00:42:54.447Z,90.53
2017-01-13T00:43:22.633Z,91.5
2017-01-13T00:43:50.887Z,91.35
2017-01-13T00:44:19.039Z,91.3
2017-01-13T00:44:47.195Z,91.69
2017-01-13T00:45:15.357Z,92.36
2017-01-13T00:45:43.501Z,92.17
2017-01-13T00:46:11.628Z,92.85
2017-01-13T00:46:39.763Z,92.46
2017-01-13T00:47:07.912Z,92.17
2017-01-13T00:47:36.141Z,92.27
2017-01-13T00:48:04.272Z,92.27
2017-01-13T00:48:32.594Z,92.08
2017-01-13T00:49:00.739Z,93.23
2017-01-13T00:49:28.893Z,93.08
2017-01-13T00:49:57.033Z,92.85
2017-01-13T00:50:25.191Z,92.46
2017-01-13T00:50:53.346Z,92.65
2017-01-13T00:51:21.504Z,92.7
2017-01-13T00:51:49.638Z,93.08
2017-01-13T00:52:17.786Z,93.43
2017-01-13T00:52:46.004Z,93.28
2017-01-13T00:53:14.152Z,92.65
2017-01-13T00:53:42.299Z,92.85
2017-01-13T00:54:10.439Z,92.56
2017-01-13T00:54:38.604Z,92.36
2017-01-13T00:55:06.759Z,92.46
2017-01-13T00:55:34.896Z,92.17
2017-01-13T00:56:03.142Z,93.33
2017-01-13T00:56:31.284Z,92.94
2017-01-13T00:56:59.434Z,92.94
2017-01-13T00:57:27.597Z,93.23
2017-01-13T00:57:55.841Z,92.94
2017-01-13T00:58:24.121Z,92.94
2017-01-13T00:58:52.277Z,93.43
2017-01-13T00:59:20.409Z,93.23
2017-01-13T00:59:48.584Z,93.13
2017-01-13T01:00:16.823Z,93.13
2017-01-13T01:00:44.976Z,93.04
2017-01-13T01:01:13.137Z,93.04
2017-01-13T01:01:41.278Z,92.85
2017-01-13T01:02:09.448Z,92.65
2017-01-13T01:02:37.622Z,92.46
2017-01-13T01:03:05.780Z,92.36
2017-01-13T01:03:33.917Z,92.65
2017-01-13T01:04:02.162Z,92.94
2017-01-13T01:04:30.321Z,93.33
2017-01-13T01:04:58.449Z,93.04
2017-01-13T01:05:26.597Z,93.43
2017-01-13T01:05:54.765Z,93.43
2017-01-13T01:06:22.936Z,93.33
2017-01-13T01:06:51.119Z,92.46
2017-01-13T01:07:19.295Z,92.27
2017-01-13T01:07:47.457Z,92.65
2017-01-13T01:08:15.626Z,92.56
2017-01-13T01:08:43.789Z,93.04
2017-01-13T01:09:11.946Z,92.75
2017-01-13T01:09:40.150Z,92.46
2017-01-13T01:10:08.295Z,93.33
2017-01-13T01:10:36.449Z,93.04
2017-01-13T01:11:04.629Z,93.52
2017-01-13T01:11:32.788Z,92.56
2017-01-13T01:12:00.937Z,92.36
2017-01-13T01:12:29.107Z,92.75
2017-01-13T01:12:57.270Z,92.27
2017-01-13T01:13:25.460Z,92.75
2017-01-13T01:13:53.737Z,92.56
2017-01-13T01:14:21.967Z,93.04
2017-01-13T01:14:50.152Z,92.94
2017-01-13T01:15:18.329Z,93.23
2017-01-13T01:15:46.480Z,92.46
2017-01-13T01:16:14.638Z,93.23
2017-01-13T01:16:42.816Z,92.85
2017-01-13T01:17:10.982Z,93.04
2017-01-13T01:17:39.177Z,92.65
2017-01-13T01:18:07.339Z,92.27
2017-01-13T01:18:35.580Z,92.85
2017-01-13T01:19:03.738Z,93.23
2017-01-13T01:19:31.890Z,92.56
2017-01-13T01:20:00.152Z,92.65
2017-01-13T01:20:28.311Z,92.56
2017-01-13T01:20:56.502Z,92.65
2017-01-13T01:21:24.776Z,92.46
2017-01-13T01:21:53.027Z,92.36
2017-01-13T01:22:21.180Z,91.98
2017-01-13T01:22:49.342Z,92.17
2017-01-13T01:23:17.522Z,92.32
2017-01-13T01:23:45.693Z,92.46
2017-01-13T01:24:13.845Z,92.56
2017-01-13T01:24:41.987Z,92.56
2017-01-13T01:25:10.152Z,92.56
2017-01-13T01:25:38.299Z,93.28
2017-01-13T01:26:06.458Z,92.56
2017-01-13T01:26:34.597Z,92.51
2017-01-13T01:27:02.792Z,92.65
2017-01-13T01:27:30.985Z,92.65
2017-01-13T01:27:59.137Z,92.17
2017-01-13T01:28:27.294Z,92.08
2017-01-13T01:28:55.484Z,91.93
2017-01-13T01:29:23.673Z,92.17
2017-01-13T01:29:51.822Z,92.46
2017-01-13T01:30:19.993Z,92.36
2017-01-13T01:30:48.269Z,92.36
2017-01-13T01:31:16.411Z,92.56
2017-01-13T01:31:44.665Z,92.46
2017-01-13T01:32:12.809Z,92.17
2017-01-13T01:32:40.988Z,92.08
2017-01-13T01:33:09.146Z,91.69
2017-01-13T01:33:37.313Z,91.69
2017-01-13T01:34:05.486Z,91.5
2017-01-13T01:34:33.660Z,91.78
2017-01-13T01:35:01.814Z,91.6
2017-01-13T01:35:29.995Z,91.88
2017-01-13T01:35:58.138Z,91.5
2017-01-13T01:36:26.302Z,91.4
2017-01-13T01:36:54.482Z,91.4
2017-01-13T01:37:22.656Z,90.82
2017-01-13T01:37:50.819Z,90.72
2017-01-13T01:38:18.968Z,90.44
2017-01-13T01:38:47.249Z,90.63
2017-01-13T01:39:15.425Z,90.34
2017-01-13T01:39:43.597Z,90.72
2017-01-13T01:40:11.768Z,90.44
2017-01-13T01:40:39.924Z,90.72
2017-01-13T01:41:08.094Z,90.53
2017-01-13T01:41:36.279Z,90.44
2017-01-13T01:42:04.553Z,90.72
2017-01-13T01:42:32.733Z,90.44
2017-01-13T01:43:00.915Z,90.63
2017-01-13T01:43:29.073Z,90.63
2017-01-13T01:43:57.274Z,90.24
2017-01-13T01:44:25.421Z,90.44
2017-01-13T01:44:53.606Z,90.15
2017-01-13T01:45:21.796Z,90.24
2017-01-13T01:45:49.984Z,90.63
2017-01-13T01:46:18.129Z,90.15
2017-01-13T01:46:46.315Z,90.53
2017-01-13T01:47:14.700Z,89.76
2017-01-13T01:47:42.862Z,90.15
2017-01-13T01:48:11.245Z,90.63
2017-01-13T01:48:39.410Z,89.86
2017-01-13T01:49:07.583Z,90.15
2017-01-13T01:49:35.838Z,90.63
2017-01-13T01:50:04.034Z,90.44
2017-01-13T01:50:32.304Z,90.72
2017-01-13T01:51:00.483Z,90.53
2017-01-13T01:51:28.688Z,90.34
2017-01-13T01:51:56.854Z,90.24
2017-01-13T01:52:25.055Z,90.53
2017-01-13T01:52:53.209Z,90.63
2017-01-13T01:53:21.373Z,90.63
2017-01-13T01:53:49.537Z,90.44
2017-01-13T01:54:17.724Z,90.44
2017-01-13T01:54:45.931Z,90.24
2017-01-13T01:55:14.062Z,89.86
2017-01-13T01:55:42.493Z,90.15
2017-01-13T01:56:10.664Z,89.76
2017-01-13T01:56:38.824Z,89.95
2017-01-13T01:57:07.013Z,89.95
2017-01-13T01:57:35.204Z,89.86
2017-01-13T01:58:03.382Z,89.57
2017-01-13T01:58:31.562Z,90.05
2017-01-13T01:58:59.725Z,90.24
2017-01-13T01:59:27.882Z,90.63
2017-01-13T01:59:56.042Z,90.15
2017-01-13T02:00:24.184Z,89.76
2017-01-13T02:00:52.347Z,90.63
2017-01-13T02:01:20.612Z,90.44
2017-01-13T02:01:48.833Z,90.82
2017-01-13T02:02:17.191Z,90.44
2017-01-13T02:02:45.386Z,90.63
2017-01-13T02:03:13.546Z,90.53
2017-01-13T02:03:41.698Z,90.53
2017-01-13T02:04:09.867Z,90.72
2017-01-13T02:04:38.072Z,90.82
2017-01-13T02:05:06.245Z,90.63
2017-01-13T02:05:34.409Z,90.63
2017-01-13T02:06:02.574Z,90.44
2017-01-13T02:06:30.727Z,90.53
2017-01-13T02:06:58.856Z,90.63
2017-01-13T02:07:27.029Z,90.72
2017-01-13T02:07:55.176Z,90.24
2017-01-13T02:08:23.471Z,88.99
2017-01-13T02:08:51.633Z,88.12
2017-01-13T02:09:19.914Z,88.7
2017-01-13T02:09:48.064Z,89.18
2017-01-13T02:10:16.363Z,88.6
2017-01-13T02:10:44.607Z,88.99
2017-01-13T02:11:12.890Z,89.28
2017-01-13T02:11:41.051Z,89.76
2017-01-13T02:12:09.213Z,88.89
2017-01-13T02:12:37.383Z,87.79
2017-01-13T02:13:05.574Z,88.85
2017-01-13T02:13:33.744Z,87.83
2017-01-13T02:14:01.944Z,88.65
2017-01-13T02:14:30.130Z,88.37
2017-01-13T02:14:58.315Z,88.85
2017-01-13T02:15:26.597Z,88.56
2017-01-13T02:15:54.751Z,89.43
2017-01-13T02:16:22.904Z,89.62
2017-01-13T02:16:51.073Z,90.1
2017-01-13T02:17:19.224Z,90.78
2017-01-13T02:17:47.380Z,90.2
2017-01-13T02:18:15.542Z,89.91
2017-01-13T02:18:43.712Z,90.58
2017-01-13T02:19:11.880Z,90.39
2017-01-13T02:19:40.037Z,90.48
2017-01-13T02:20:08.229Z,90.58
2017-01-13T02:20:36.400Z,90.58
2017-01-13T02:21:04.582Z,90.68
2017-01-13T02:21:32.752Z,90.68
2017-01-13T02:22:00.929Z,90.3
2017-01-13T02:22:29.187Z,90.78
2017-01-13T02:22:57.379Z,90.78
2017-01-13T02:23:25.541Z,90.68
2017-01-13T02:23:53.782Z,90.58
2017-01-13T02:24:21.942Z,90.1
2017-01-13T02:24:50.091Z,90.58
2017-01-13T02:25:18.252Z,90.39
2017-01-13T02:25:46.492Z,90.58
2017-01-13T02:26:14.801Z,90.58
2017-01-13T02:26:42.967Z,90.2
2017-01-13T02:27:11.255Z,89.91
2017-01-13T02:27:39.421Z,90.39
2017-01-13T02:28:07.601Z,90.1
2017-01-13T02:28:35.792Z,89.91
2017-01-13T02:29:03.981Z,89.43
2017-01-13T02:29:32.140Z,89.43
2017-01-13T02:30:00.334Z,89.43
2017-01-13T02:30:28.582Z,88.85
2017-01-13T02:30:56.742Z,89.43
2017-01-13T02:31:24.912Z,89.53
2017-01-13T02:31:53.093Z,88.85
2017-01-13T02:32:21.272Z,88.95
2017-01-13T02:32:49.424Z,88.65
2017-01-13T02:33:17.593Z,89.33
2017-01-13T02:33:45.782Z,89.43
2017-01-13T02:34:13.971Z,89.23
2017-01-13T02:34:42.152Z,89.43
2017-01-13T02:35:10.300Z,89.33
2017-01-13T02:35:38.575Z,88.95
2017-01-13T02:36:06.735Z,89.43
2017-01-13T02:36:34.878Z,88.75
2017-01-13T02:37:03.051Z,89.04
2017-01-13T02:37:31.322Z,88.95
2017-01-13T02:37:59.494Z,89.33
2017-01-13T02:38:27.635Z,88.85
2017-01-13T02:38:55.813Z,88.75
2017-01-13T02:39:23.982Z,88.17
2017-01-13T02:39:52.265Z,88.56
2017-01-13T02:40:20.443Z,88.46
2017-01-13T02:40:48.607Z,89.09
2017-01-13T02:41:16.755Z,88.37
2017-01-13T02:41:44.917Z,88.56
2017-01-13T02:42:13.053Z,88.37
2017-01-13T02:42:41.227Z,88.56
2017-01-13T02:43:09.381Z,87.79
2017-01-13T02:43:37.584Z,88.08
2017-01-13T02:44:05.751Z,88.08
2017-01-13T02:44:33.938Z,87.79
2017-01-13T02:45:02.085Z,88.85
2017-01-13T02:45:30.260Z,88.95
2017-01-13T02:45:58.441Z,88.08
2017-01-13T02:46:26.641Z,87.6
2017-01-13T02:46:54.802Z,87.79
2017-01-13T02:47:23.081Z,88.27
2017-01-13T02:47:51.237Z,88.56
2017-01-13T02:48:19.424Z,88.56
2017-01-13T02:48:47.639Z,87.98
2017-01-13T02:49:15.825Z,88.27
2017-01-13T02:49:44.006Z,87.7
2017-01-13T02:50:12.332Z,87.88
2017-01-13T02:50:41.355Z,87.7
2017-01-13T02:51:10.647Z,87.98
2017-01-13T02:51:39.173Z,87.98
2017-01-13T02:52:07.676Z,88.17
2017-01-13T02:52:35.888Z,87.88
2017-01-13T02:53:04.423Z,87.98
2017-01-13T02:53:32.606Z,87.98
2017-01-13T02:54:00.787Z,87.98
2017-01-13T02:54:29.143Z,87.98
2017-01-13T02:54:57.305Z,87.21
2017-01-13T02:55:25.551Z,87.5
2017-01-13T02:55:53.743Z,87.3
2017-01-13T02:56:21.924Z,87.5
2017-01-13T02:56:50.073Z,87.7
2017-01-13T02:57:18.218Z,87.98
2017-01-13T02:57:46.468Z,87.88
2017-01-13T02:58:14.616Z,88.17
2017-01-13T02:58:42.783Z,87.88
2017-01-13T02:59:10.931Z,88.17
2017-01-13T02:59:39.161Z,88.08
2017-01-13T03:00:07.326Z,88.08
2017-01-13T03:00:36.711Z,87.88
2017-01-13T03:01:04.861Z,87.79
2017-01-13T03:01:33.022Z,88.37
2017-01-13T03:02:01.151Z,88.08
2017-01-13T03:02:29.335Z,88.17
2017-01-13T03:02:57.523Z,88.65
2017-01-13T03:03:25.678Z,88.56
2017-01-13T03:03:53.851Z,88.65
2017-01-13T03:04:22.082Z,87.79
2017-01-13T03:04:50.270Z,88.37
2017-01-13T03:05:18.452Z,89.04
2017-01-13T03:05:46.634Z,88.85
2017-01-13T03:06:14.823Z,88.85
2017-01-13T03:06:42.987Z,88.85
2017-01-13T03:07:11.158Z,88.95
2017-01-13T03:07:39.340Z,88.95
2017-01-13T03:08:07.512Z,88.85
2017-01-13T03:08:35.779Z,88.85
2017-01-13T03:09:04.073Z,88.85
2017-01-13T03:09:32.253Z,88.85
2017-01-13T03:10:00.590Z,88.85
2017-01-13T03:10:28.740Z,88.65
2017-01-13T03:10:56.974Z,88.12
2017-01-13T03:11:25.135Z,86.96
2017-01-13T03:11:53.329Z,87.4
2017-01-13T03:12:21.518Z,87.02
2017-01-13T03:12:49.687Z,87.3
2017-01-13T03:13:17.849Z,87.79
2017-01-13T03:13:46.008Z,87.12
2017-01-13T03:14:14.196Z,87.4
2017-01-13T03:14:42.392Z,87.6
2017-01-13T03:15:10.585Z,87.5
2017-01-13T03:15:38.760Z,87.5
2017-01-13T03:16:06.911Z,87.79
2017-01-13T03:16:35.070Z,88.08
2017-01-13T03:17:03.237Z,87.98
2017-01-13T03:17:31.411Z,88.08
2017-01-13T03:17:59.585Z,87.88
2017-01-13T03:18:27.766Z,88.27
2017-01-13T03:18:55.945Z,88.17
2017-01-13T03:19:24.151Z,88.17
2017-01-13T03:19:52.320Z,88.27
2017-01-13T03:20:20.528Z,88.27
2017-01-13T03:20:48.691Z,88.27
2017-01-13T03:21:16.953Z,88.37
2017-01-13T03:21:45.137Z,87.79
2017-01-13T03:22:13.381Z,88.08
2017-01-13T03:22:41.518Z,87.02
2017-01-13T03:23:09.689Z,87.02
2017-01-13T03:23:37.848Z,86.82
2017-01-13T03:24:06.006Z,86.63
2017-01-13T03:24:34.186Z,87.12
2017-01-13T03:25:02.358Z,87.21
2017-01-13T03:25:30.520Z,87.6
2017-01-13T03:25:58.693Z,87.4
2017-01-13T03:26:26.833Z,87.79
2017-01-13T03:26:55.094Z,87.6
2017-01-13T03:27:23.281Z,88.17
2017-01-13T03:27:51.470Z,88.17
2017-01-13T03:28:19.731Z,88.08
2017-01-13T03:28:47.888Z,88.08
2017-01-13T03:29:16.075Z,88.08
2017-01-13T03:29:44.254Z,88.17
2017-01-13T03:30:12.409Z,87.88
2017-01-13T03:30:40.557Z,87.7
2017-01-13T03:31:08.711Z,87.7
2017-01-13T03:31:36.949Z,87.21
2017-01-13T03:32:05.116Z,87.6
2017-01-13T03:32:33.437Z,87.4
2017-01-13T03:33:01.614Z,87.6
2017-01-13T03:33:29.809Z,87.3
2017-01-13T03:33:57.946Z,87.3
2017-01-13T03:34:26.114Z,87.21
2017-01-13T03:34:54.315Z,87.5
2017-01-13T03:35:22.497Z,87.3
2017-01-13T03:35:50.638Z,87.5
2017-01-13T03:36:18.833Z,87.6
2017-01-13T03:36:46.986Z,87.6
2017-01-13T03:37:15.163Z,87.5
2017-01-13T03:37:43.339Z,87.02
2017-01-13T03:38:11.507Z,87.5
2017-01-13T03:38:39.735Z,87.5
2017-01-13T03:39:07.910Z,87.5
2017-01-13T03:39:36.101Z,87.5
2017-01-13T03:40:04.280Z,87.7
2017-01-13T03:40:32.450Z,86.92
2017-01-13T03:41:00.645Z,87.3
2017-01-13T03:41:28.838Z,86.92
2017-01-13T03:41:56.981Z,87.12
2017-01-13T03:42:25.141Z,86.92
2017-01-13T03:42:53.295Z,87.6
2017-01-13T03:43:21.465Z,87.12
2017-01-13T03:43:49.628Z,87.12
2017-01-13T03:44:17.884Z,87.3
2017-01-13T03:44:46.039Z,87.21
2017-01-13T03:45:14.221Z,87.06
2017-01-13T03:45:42.422Z,87.35
2017-01-13T03:46:10.597Z,86.82
2017-01-13T03:46:38.774Z,86.92
2017-01-13T03:47:06.937Z,86.82
2017-01-13T03:47:35.203Z,86.44
2017-01-13T03:48:03.367Z,87.21
2017-01-13T03:48:31.564Z,86.92
2017-01-13T03:48:59.724Z,87.21
2017-01-13T03:49:27.900Z,86.73
2017-01-13T03:49:56.076Z,86.92
2017-01-13T03:50:24.272Z,87.5
2017-01-13T03:50:52.444Z,87.6
2017-01-13T03:51:20.597Z,87.12
2017-01-13T03:51:48.777Z,87.79
2017-01-13T03:52:16.942Z,87.7
2017-01-13T03:52:45.216Z,87.3
2017-01-13T03:53:13.381Z,86.92
2017-01-13T03:53:41.553Z,87.4
2017-01-13T03:54:09.721Z,87.4
2017-01-13T03:54:37.938Z,87.21
2017-01-13T03:55:08.324Z,87.4
2017-01-13T03:55:36.500Z,87.02
2017-01-13T03:56:04.763Z,87.02
2017-01-13T03:56:32.994Z,87.3
2017-01-13T03:57:01.172Z,87.02
2017-01-13T03:57:29.394Z,87.12
2017-01-13T03:57:57.562Z,87.3
2017-01-13T03:58:25.745Z,87.4
2017-01-13T03:58:53.930Z,87.3
2017-01-13T03:59:22.081Z,87.12
2017-01-13T03:59:50.349Z,87.02
2017-01-13T04:00:18.547Z,86.92
2017-01-13T04:00:46.740Z,87.12
2017-01-13T04:01:14.913Z,87.21
2017-01-13T04:01:43.802Z,87.02
2017-01-13T04:02:12.064Z,87.3
2017-01-13T04:02:40.336Z,86.82
2017-01-13T04:03:08.526Z,87.21
2017-01-13T04:03:36.682Z,86.82
2017-01-13T04:04:19.358Z,86.82
2017-01-13T04:04:47.524Z,87.21
2017-01-13T04:05:15.667Z,87.21
2017-01-13T04:05:43.837Z,87.12
2017-01-13T04:06:12.030Z,86.82
2017-01-13T04:06:40.331Z,86.58
2017-01-13T04:07:08.493Z,86.58
2017-01-13T04:07:36.668Z,87.16
2017-01-13T04:08:04.861Z,86.19
2017-01-13T04:08:33.024Z,86.19
2017-01-13T04:09:01.180Z,85.52
2017-01-13T04:09:29.339Z,85.71
2017-01-13T04:09:57.511Z,85.61
2017-01-13T04:10:25.662Z,85.42
2017-01-13T04:10:53.860Z,85.91
2017-01-13T04:11:22.014Z,85.71
2017-01-13T04:11:50.229Z,85.13
2017-01-13T04:12:18.467Z,85.42
2017-01-13T04:12:46.638Z,85.81
2017-01-13T04:13:14.820Z,85.03
2017-01-13T04:13:43.001Z,84.75
2017-01-13T04:14:12.236Z,84.94
2017-01-13T04:14:40.434Z,85.81
2017-01-13T04:15:08.615Z,85.42
2017-01-13T04:15:36.779Z,85.61
2017-01-13T04:16:04.963Z,86
2017-01-13T04:16:33.576Z,85.61
2017-01-13T04:17:01.744Z,85.52
2017-01-13T04:17:29.905Z,86.19
2017-01-13T04:17:58.071Z,85.52
2017-01-13T04:18:26.270Z,85.33
2017-01-13T04:18:54.476Z,85.33
2017-01-13T04:19:22.647Z,85.42
2017-01-13T04:19:50.819Z,85.13
2017-01-13T04:20:19.016Z,85.77
2017-01-13T04:20:47.172Z,85.61
2017-01-13T04:21:15.330Z,85.09
2017-01-13T04:21:43.499Z,85.42
2017-01-13T04:22:11.667Z,86
2017-01-13T04:22:39.828Z,86.05
2017-01-13T04:23:07.992Z,86.19
2017-01-13T04:23:36.244Z,86.1
2017-01-13T04:24:04.436Z,86.19
2017-01-13T04:24:32.630Z,86
2017-01-13T04:25:00.826Z,85.86
2017-01-13T04:25:28.972Z,86.29
2017-01-13T04:25:57.230Z,86.19
2017-01-13T04:26:25.396Z,85.81
2017-01-13T04:26:53.558Z,85.91
2017-01-13T04:27:21.708Z,85.52
2017-01-13T04:27:49.913Z,85.71
2017-01-13T04:28:18.098Z,86.15
2017-01-13T04:28:46.253Z,85.96
2017-01-13T04:29:14.440Z,86.25
2017-01-13T04:29:42.681Z,85.86
2017-01-13T04:30:10.859Z,86.15
2017-01-13T04:30:39.032Z,86.15
2017-01-13T04:31:07.216Z,86.35
2017-01-13T04:31:35.384Z,86.05
2017-01-13T04:32:03.565Z,86.25
2017-01-13T04:32:31.723Z,86.15
2017-01-13T04:32:59.895Z,86.35
2017-01-13T04:33:28.588Z,86.82
2017-01-13T04:33:56.816Z,86.92
2017-01-13T04:34:25.000Z,86.92
2017-01-13T04:34:53.156Z,86.54
2017-01-13T04:35:21.391Z,86.35
2017-01-13T04:35:49.554Z,86.92
2017-01-13T04:36:17.821Z,86.92
2017-01-13T04:36:45.995Z,87.4
2017-01-13T04:37:14.154Z,87.12
2017-01-13T04:37:42.332Z,87.4
2017-01-13T04:38:10.495Z,87.02
2017-01-13T04:38:38.659Z,86.73
2017-01-13T04:39:06.841Z,86.44
2017-01-13T04:39:35.056Z,86.92
2017-01-13T04:40:03.237Z,86.92
2017-01-13T04:40:31.406Z,86.15
2017-01-13T04:40:59.569Z,86.44
2017-01-13T04:41:27.720Z,87.12
2017-01-13T04:41:55.933Z,86.44
2017-01-13T04:42:24.154Z,86.54
2017-01-13T04:42:52.397Z,86.63
2017-01-13T04:43:20.564Z,86.82
2017-01-13T04:43:48.752Z,86.35
2017-01-13T04:44:16.924Z,86.05
2017-01-13T04:44:45.164Z,86.54
2017-01-13T04:45:13.445Z,87.21
2017-01-13T04:45:41.594Z,87.4
2017-01-13T04:46:09.750Z,86.63
2017-01-13T04:46:37.935Z,86.44
2017-01-13T04:47:06.093Z,86.82
2017-01-13T04:47:34.278Z,86.92
2017-01-13T04:48:02.454Z,87.12
2017-01-13T04:48:33.635Z,87.3
2017-01-13T04:49:01.883Z,87.02
2017-01-13T04:49:30.073Z,87.21
2017-01-13T04:49:58.235Z,86.82
2017-01-13T04:50:26.496Z,87.12
2017-01-13T04:50:54.667Z,87.12
2017-01-13T04:51:22.830Z,87.02
2017-01-13T04:51:51.405Z,87.6
2017-01-13T04:52:19.606Z,87.4
2017-01-13T04:52:47.770Z,87.12
2017-01-13T04:53:15.938Z,87.6
2017-01-13T04:53:44.118Z,87.3
2017-01-13T04:54:12.318Z,87.79
2017-01-13T04:54:40.590Z,87.5
2017-01-13T04:55:08.745Z,87.5
2017-01-13T04:55:37.012Z,87.02
2017-01-13T04:56:05.284Z,87.3
2017-01-13T04:56:33.470Z,87.12
2017-01-13T04:57:01.655Z,87.3
2017-01-13T04:57:29.879Z,86.73
2017-01-13T04:57:58.053Z,87.3
2017-01-13T04:58:26.251Z,87.12
2017-01-13T04:58:54.395Z,87.3
2017-01-13T04:59:22.553Z,87.12
2017-01-13T04:59:50.707Z,87.4
2017-01-13T05:00:18.885Z,87.21
2017-01-13T05:00:47.058Z,87.3
2017-01-13T05:01:15.250Z,87.3
2017-01-13T05:01:43.421Z,87.4
2017-01-13T05:02:11.668Z,87.21
2017-01-13T05:02:39.827Z,87.6
2017-01-13T05:03:08.114Z,87.79
2017-01-13T05:03:36.279Z,87.5
2017-01-13T05:04:04.460Z,87.5
2017-01-13T05:04:32.719Z,87.79
2017-01-13T05:05:00.889Z,88.17
2017-01-13T05:05:29.042Z,88.27
2017-01-13T05:05:57.217Z,88.27
2017-01-13T05:06:25.383Z,88.27
2017-01-13T05:06:53.591Z,87.7
2017-01-13T05:07:21.791Z,87.6
2017-01-13T05:07:49.967Z,87.7
2017-01-13T05:08:18.129Z,87.7
2017-01-13T05:08:46.319Z,87.6
2017-01-13T05:09:14.512Z,87.79
2017-01-13T05:09:42.671Z,87.7
2017-01-13T05:10:10.838Z,87.5
2017-01-13T05:10:38.994Z,87.21
2017-01-13T05:11:07.165Z,87.21
2017-01-13T05:11:35.332Z,87.3
2017-01-13T05:12:03.490Z,87.4
2017-01-13T05:12:31.643Z,87.5
2017-01-13T05:12:59.823Z,87.3
2017-01-13T05:13:28.104Z,87.21
2017-01-13T05:13:56.303Z,87.26
2017-01-13T05:14:24.492Z,86.96
2017-01-13T05:14:52.638Z,87.45
2017-01-13T05:15:20.832Z,86.77
2017-01-13T05:15:48.989Z,86.29
2017-01-13T05:16:17.241Z,87.16
2017-01-13T05:16:45.410Z,87.16
2017-01-13T05:17:13.560Z,86.48
2017-01-13T05:17:41.721Z,86.92
2017-01-13T05:18:09.877Z,86.19
2017-01-13T05:18:38.032Z,86.68
2017-01-13T05:19:06.196Z,86.29
2017-01-13T05:19:34.371Z,86.25
2017-01-13T05:20:02.597Z,86.35
2017-01-13T05:20:30.766Z,86.63
2017-01-13T05:20:58.910Z,87.12
2017-01-13T05:21:27.064Z,87.21
2017-01-13T05:21:55.342Z,87.3
2017-01-13T05:22:23.604Z,87.5
2017-01-13T05:22:51.764Z,87.79
2017-01-13T05:23:19.923Z,87.6
2017-01-13T05:23:48.084Z,87.79
2017-01-13T05:24:16.348Z,87.6
2017-01-13T05:24:44.533Z,87.6
2017-01-13T05:25:12.674Z,87.79
2017-01-13T05:25:40.845Z,87.88
2017-01-13T05:26:09.026Z,87.88
2017-01-13T05:26:37.195Z,88.08
2017-01-13T05:27:05.371Z,88.08
2017-01-13T05:27:33.544Z,88.17
2017-01-13T05:28:01.713Z,88.08
2017-01-13T05:28:29.866Z,88.17
2017-01-13T05:28:58.146Z,88.08
2017-01-13T05:29:26.316Z,88.08
2017-01-13T05:29:54.519Z,88.27
2017-01-13T05:30:22.672Z,88.08
2017-01-13T05:30:50.872Z,88.08
2017-01-13T05:31:19.075Z,88.37
2017-01-13T05:31:47.215Z,87.98
2017-01-13T05:32:15.401Z,87.6
2017-01-13T05:32:43.695Z,87.6
2017-01-13T05:33:11.845Z,88.27
2017-01-13T05:33:40.030Z,87.98
2017-01-13T05:34:08.202Z,88.08
2017-01-13T05:34:36.379Z,87.6
2017-01-13T05:35:04.592Z,87.79
2017-01-13T05:35:32.755Z,87.7
2017-01-13T05:36:00.924Z,87.6
2017-01-13T05:36:29.178Z,87.7
2017-01-13T05:36:57.341Z,87.6
2017-01-13T05:37:25.514Z,87.02
2017-01-13T05:37:53.667Z,87.21
2017-01-13T05:38:21.830Z,87.02
2017-01-13T05:38:50.011Z,87.21
2017-01-13T05:39:18.205Z,87.12
2017-01-13T05:39:46.491Z,87.21
2017-01-13T05:40:14.646Z,87.5
2017-01-13T05:40:42.921Z,87.21
2017-01-13T05:41:11.100Z,87.12
2017-01-13T05:41:39.260Z,87.16
2017-01-13T05:42:07.415Z,87.26
2017-01-13T05:42:35.594Z,87.16
2017-01-13T05:43:03.797Z,87.02
2017-01-13T05:43:31.957Z,86.96
2017-01-13T05:44:00.116Z,87.45
2017-01-13T05:44:28.348Z,86.73
2017-01-13T05:44:56.527Z,86.96
2017-01-13T05:45:24.791Z,86.58
2017-01-13T05:45:52.944Z,86.77
2017-01-13T05:46:21.126Z,87.16
2017-01-13T05:46:49.279Z,87.12
2017-01-13T05:47:17.451Z,87.02
2017-01-13T05:47:45.824Z,87.26
2017-01-13T05:48:14.011Z,87.3
2017-01-13T05:48:42.246Z,86.73
2017-01-13T05:49:10.490Z,87.3
2017-01-13T05:49:38.672Z,87.21
2017-01-13T05:50:06.831Z,87.3
2017-01-13T05:50:34.989Z,87.54
2017-01-13T05:51:03.195Z,87.4
2017-01-13T05:51:31.407Z,87.64
2017-01-13T05:51:59.573Z,87.26
2017-01-13T05:52:27.753Z,86.87
2017-01-13T05:52:55.913Z,87.12
2017-01-13T05:53:24.089Z,86.96
2017-01-13T05:53:52.249Z,86.35
2017-01-13T05:54:20.418Z,86.68
2017-01-13T05:54:48.580Z,86.68
2017-01-13T05:55:16.733Z,87.06
2017-01-13T05:55:44.901Z,86.87
2017-01-13T05:56:13.211Z,86.68
2017-01-13T05:56:41.476Z,86.29
2017-01-13T05:57:09.689Z,86.44
2017-01-13T05:57:37.854Z,85.77
2017-01-13T05:58:06.056Z,87.02
2017-01-13T05:58:34.335Z,87.26
2017-01-13T05:59:02.534Z,87.35
2017-01-13T05:59:30.811Z,87.06
2017-01-13T05:59:58.970Z,87.16
2017-01-13T06:00:27.212Z,86.58
2017-01-13T06:00:55.366Z,86.35
2017-01-13T06:01:23.579Z,86.1
2017-01-13T06:01:51.737Z,86.19
2017-01-13T06:02:20.041Z,86.54
2017-01-13T06:02:48.291Z,87.06
2017-01-13T06:03:16.474Z,87.45
2017-01-13T06:03:44.678Z,87.3
2017-01-13T06:04:12.815Z,87.12
2017-01-13T06:04:41.045Z,87.26
2017-01-13T06:05:09.190Z,87.26
2017-01-13T06:05:37.488Z,87.3